createdAt,value
2023-01-11T00:00:12.503Z,96554.72
2023-01-11T00:02:40.556Z,96563.75
2023-01-11T00:05:09.993Z,96547.94
2023-01-11T00:07:39.164Z,96565.16
2023-01-11T00:10:10.225Z,96559.50
2023-01-11T00:12:43.439Z,96294.47
2023-01-11T00:15:13.318Z,96562.63
2023-01-11T00:17:44.165Z,96547.66
2023-01-11T00:20:12.318Z,96537.22
2023-01-11T00:22:41.755Z,96537.88
2023-01-11T00:25:13.717Z,96527.94
2023-01-11T00:27:43.860Z,96537.41
2023-01-11T00:30:13.483Z,96530.69
2023-01-11T00:32:42.992Z,96482.38
2023-01-11T00:35:11.560Z,96510.38
2023-01-11T00:37:39.917Z,96509.72
2023-01-11T00:40:26.595Z,96450.00
2023-01-11T00:43:12.105Z,96500.38
2023-01-11T00:45:58.290Z,96500.59
2023-01-11T00:48:26.678Z,96503.91
2023-01-11T00:50:55.702Z,96420.09
2023-01-11T00:53:23.786Z,96490.84
2023-01-11T00:55:58.819Z,96490.84
2023-01-11T00:58:29.276Z,96481.78
2023-01-11T01:00:59.317Z,96493.06
2023-01-11T01:03:29.295Z,96484.16
2023-01-11T01:05:57.158Z,96217.31
2023-01-11T01:08:25.053Z,96485.06
2023-01-11T01:10:54.384Z,96489.25
2023-01-11T01:13:39.879Z,96484.97
2023-01-11T01:16:12.243Z,96477.28
2023-01-11T01:18:40.139Z,96481.13
2023-01-11T01:21:08.384Z,96500.59
2023-01-11T01:23:36.903Z,96485.09
2023-01-11T01:26:06.594Z,96483.75
2023-01-11T01:28:34.922Z,96480.88
2023-01-11T01:31:05.381Z,96494.16
2023-01-11T01:33:33.682Z,96487.63
2023-01-11T01:36:02.450Z,96464.47
2023-01-11T01:38:33.381Z,96489.44
2023-01-11T01:41:01.215Z,96503.66
2023-01-11T01:43:52.096Z,96498.97
2023-01-11T01:46:21.190Z,96486.97
2023-01-11T01:48:55.403Z,96482.22
2023-01-11T01:51:27.685Z,96481.94
2023-01-11T01:54:02.241Z,96462.41
2023-01-11T01:56:33.695Z,96493.50
2023-01-11T01:59:04.516Z,96463.09
2023-01-11T02:01:50.616Z,96476.84
2023-01-11T02:04:25.045Z,96472.44
2023-01-11T02:06:58.996Z,96462.94
2023-01-11T02:09:34.835Z,96457.69
2023-01-11T02:12:04.590Z,96419.91
2023-01-11T02:14:37.482Z,96465.50
2023-01-11T02:17:05.368Z,96454.50
2023-01-11T02:19:45.695Z,96449.09
2023-01-11T02:22:46.412Z,96443.53
2023-01-11T02:25:35.067Z,96440.72
2023-01-11T02:31:12.514Z,96420.38
2023-01-11T02:33:46.193Z,96430.25
2023-01-11T02:36:19.651Z,96376.22
2023-01-11T02:38:52.546Z,96427.16
2023-01-11T02:41:26.760Z,96436.38
2023-01-11T02:44:18.315Z,96428.63
2023-01-11T02:46:49.645Z,96434.28
2023-01-11T02:49:27.780Z,96382.91
2023-01-11T02:51:57.662Z,96424.47
2023-01-11T02:54:28.273Z,96436.63
2023-01-11T02:57:02.679Z,96380.22
2023-01-11T02:59:36.216Z,96355.47
2023-01-11T03:02:04.333Z,96427.25
2023-01-11T03:04:34.128Z,96424.22
2023-01-11T03:07:14.037Z,96421.31
2023-01-11T03:09:54.645Z,96409.47
2023-01-11T03:12:50.440Z,96415.28
2023-01-11T03:15:57.383Z,96419.19
2023-01-11T03:18:45.318Z,96390.66
2023-01-11T03:21:22.799Z,96364.88
2023-01-11T03:24:02.537Z,96424.91
2023-01-11T03:26:39.335Z,96413.91
2023-01-11T03:29:15.068Z,96413.47
2023-01-11T03:31:52.151Z,96401.59
2023-01-11T03:34:28.843Z,96404.66
2023-01-11T03:36:59.794Z,96389.75
2023-01-11T03:39:29.351Z,96400.09
2023-01-11T03:42:03.473Z,96392.19
2023-01-11T03:44:35.056Z,96397.13
2023-01-11T03:47:10.449Z,96376.44
2023-01-11T03:49:52.567Z,96389.56
2023-01-11T03:52:25.883Z,96356.38
2023-01-11T03:54:59.401Z,96386.31
2023-01-11T03:57:33.442Z,96384.22
2023-01-11T04:00:01.541Z,96367.47
2023-01-11T04:02:38.551Z,96379.34
2023-01-11T04:05:13.825Z,96316.47
2023-01-11T04:07:43.935Z,96358.03
2023-01-11T04:10:15.652Z,96366.81
2023-01-11T04:12:46.739Z,96355.13
2023-01-11T04:15:21.881Z,96355.56
2023-01-11T04:17:51.215Z,96354.47
2023-01-11T04:20:24.132Z,96312.28
2023-01-11T04:22:51.913Z,96355.44
2023-01-11T04:25:23.885Z,96363.84
2023-01-11T04:27:51.718Z,96352.06
2023-01-11T04:30:19.474Z,96359.25
2023-01-11T04:32:51.627Z,96351.38
2023-01-11T04:35:19.639Z,96352.78
2023-01-11T04:37:51.252Z,96352.91
2023-01-11T04:40:20.244Z,96323.84
2023-01-11T04:42:47.095Z,96345.59
2023-01-11T04:45:15.570Z,96337.25
2023-01-11T04:47:48.190Z,96335.28
2023-01-11T04:50:19.642Z,96343.53
2023-01-11T04:52:51.738Z,96345.34
2023-01-11T04:55:23.716Z,96346.22
2023-01-11T04:57:53.503Z,96348.63
2023-01-11T05:00:25.565Z,96339.66
2023-01-11T05:02:53.843Z,96337.69
2023-01-11T05:05:23.052Z,96331.59
2023-01-11T05:07:53.322Z,96333.34
2023-01-11T05:10:26.192Z,96338.56
2023-01-11T05:12:57.230Z,96330.13
2023-01-11T05:15:28.246Z,96334.66
2023-01-11T05:17:56.112Z,96121.53
2023-01-11T05:20:31.051Z,96325.91
2023-01-11T05:23:01.715Z,96330.13
2023-01-11T05:25:35.199Z,96309.53
2023-01-11T05:28:03.262Z,96338.28
2023-01-11T05:30:31.212Z,96338.06
2023-01-11T05:32:59.411Z,96338.31
2023-01-11T05:35:31.892Z,96330.81
2023-01-11T05:38:01.774Z,96317.75
2023-01-11T05:40:32.656Z,96336.63
2023-01-11T05:43:03.281Z,96336.00
2023-01-11T05:45:32.198Z,96332.06
2023-01-11T05:48:00.524Z,96328.50
2023-01-11T05:50:32.134Z,96328.25
2023-01-11T05:53:06.007Z,96304.66
2023-01-11T05:55:34.052Z,96328.56
2023-01-11T05:58:04.468Z,96307.34
2023-01-11T06:00:35.082Z,96300.00
2023-01-11T06:03:03.268Z,96294.81
2023-01-11T06:05:35.250Z,96293.38
2023-01-11T06:08:03.081Z,96292.75
2023-01-11T06:10:36.166Z,96292.75
2023-01-11T06:13:20.437Z,96281.78
2023-01-11T06:15:51.777Z,96275.16
2023-01-11T06:18:19.611Z,96284.13
2023-01-11T06:20:51.669Z,96270.75
2023-01-11T06:23:24.010Z,96278.94
2023-01-11T06:25:51.847Z,96277.81
2023-01-11T06:28:19.812Z,96244.38
2023-01-11T06:30:53.041Z,96241.91
2023-01-11T06:33:21.133Z,96294.41
2023-01-11T06:35:49.985Z,96269.88
2023-01-11T06:38:23.233Z,96274.88
2023-01-11T06:40:55.339Z,96276.03
2023-01-11T06:43:23.585Z,96269.53
2023-01-11T06:45:51.699Z,96258.00
2023-01-11T06:48:20.272Z,96280.56
2023-01-11T06:50:49.407Z,96272.28
2023-01-11T06:53:18.295Z,96278.94
2023-01-11T06:55:55.074Z,96194.28
2023-01-11T06:58:23.539Z,96284.38
2023-01-11T07:00:52.738Z,96274.41
2023-01-11T07:03:24.172Z,96278.63
2023-01-11T07:05:52.921Z,96264.25
2023-01-11T07:08:22.591Z,96268.22
2023-01-11T07:10:59.791Z,96262.81
2023-01-11T07:13:30.609Z,96240.34
2023-01-11T07:15:59.430Z,96238.63
2023-01-11T07:18:33.509Z,96260.56
2023-01-11T07:21:02.469Z,96256.75
2023-01-11T07:23:30.285Z,96252.84
2023-01-11T07:26:05.742Z,96250.66
2023-01-11T07:28:35.131Z,96254.72
2023-01-11T07:31:03.003Z,96249.41
2023-01-11T07:33:30.944Z,96264.31
2023-01-11T07:36:00.745Z,96259.06
2023-01-11T07:38:32.493Z,96262.75
2023-01-11T07:41:21.824Z,96263.78
2023-01-11T07:43:52.089Z,96260.56
2023-01-11T07:46:26.729Z,96251.97
2023-01-11T07:48:55.215Z,96262.00
2023-01-11T07:51:24.369Z,96258.25
2023-01-11T07:53:56.188Z,96256.22
2023-01-11T07:56:26.005Z,96244.66
2023-01-11T07:58:54.128Z,96252.81
2023-01-11T08:01:22.294Z,96237.72
2023-01-11T08:03:53.236Z,96250.78
2023-01-11T08:06:21.207Z,96262.84
2023-01-11T08:08:49.303Z,96251.31
2023-01-11T08:11:35.019Z,96260.34
2023-01-11T08:14:23.981Z,96259.66
2023-01-11T08:17:00.891Z,96231.50
2023-01-11T08:19:29.163Z,96217.13
2023-01-11T08:21:57.088Z,96240.63
2023-01-11T08:24:26.064Z,96245.91
2023-01-11T08:26:54.498Z,96226.81
2023-01-11T08:29:23.826Z,96243.22
2023-01-11T08:31:51.672Z,96234.34
2023-01-11T08:34:22.479Z,96241.19
2023-01-11T08:36:56.721Z,96251.22
2023-01-11T08:39:25.300Z,96256.84
2023-01-11T08:41:54.312Z,96253.06
2023-01-11T08:44:34.075Z,96112.16
2023-01-11T08:47:03.424Z,96248.31
2023-01-11T08:49:31.705Z,96129.41
2023-01-11T08:51:59.709Z,96241.25
2023-01-11T08:54:27.603Z,96249.75
2023-01-11T08:56:56.554Z,96249.50
2023-01-11T08:59:34.299Z,96255.00
2023-01-11T09:02:06.704Z,96287.22
2023-01-11T09:04:35.202Z,96244.91
2023-01-11T09:07:05.176Z,96250.47
2023-01-11T09:09:35.744Z,96249.75
2023-01-11T09:12:10.713Z,96251.75
2023-01-11T09:14:40.106Z,96239.13
2023-01-11T09:17:08.420Z,96241.22
2023-01-11T09:19:38.665Z,96248.84
2023-01-11T09:22:06.823Z,95961.75
2023-01-11T09:24:44.176Z,96236.16
2023-01-11T09:27:12.510Z,96225.31
2023-01-11T09:29:41.778Z,96259.50
2023-01-11T09:32:16.160Z,96250.78
2023-01-11T09:34:46.788Z,96250.00
2023-01-11T09:37:14.909Z,96256.31
2023-01-11T09:39:46.731Z,96258.09
2023-01-11T09:42:32.148Z,96267.66
2023-01-11T09:45:13.131Z,96226.97
2023-01-11T09:47:44.971Z,96261.88
2023-01-11T09:50:20.071Z,96263.25
2023-01-11T09:52:54.555Z,96228.53
2023-01-11T09:55:28.704Z,96258.56
2023-01-11T09:58:08.524Z,96254.00
2023-01-11T10:00:49.702Z,96249.28
2023-01-11T10:03:39.305Z,96248.75
2023-01-11T10:06:18.596Z,96256.69
2023-01-11T10:18:25.907Z,96256.38
2023-01-11T10:18:32.540Z,96263.03
2023-01-11T10:21:04.933Z,96246.06
2023-01-11T10:23:41.745Z,96255.59
2023-01-11T10:26:23.269Z,96258.56
2023-01-11T10:29:06.105Z,96258.31
2023-01-11T10:31:49.250Z,96250.91
2023-01-11T10:34:42.038Z,96242.94
2023-01-11T10:37:28.201Z,96242.09
2023-01-11T10:40:18.455Z,96251.44
2023-01-11T10:42:52.579Z,96249.03
2023-01-11T10:45:23.714Z,96247.94
2023-01-11T10:47:57.883Z,96239.22
2023-01-11T10:50:32.006Z,96254.06
2023-01-11T10:53:09.287Z,96248.72
2023-01-11T10:55:46.835Z,96246.13
2023-01-11T10:58:27.548Z,96248.19
2023-01-11T11:01:10.842Z,96254.06
2023-01-11T11:03:46.410Z,96238.97
2023-01-11T11:06:22.175Z,96251.69
2023-01-11T11:08:53.809Z,96247.19
2023-01-11T11:11:27.843Z,96212.78
2023-01-11T11:14:02.672Z,96238.69
2023-01-11T11:16:55.575Z,96178.91
2023-01-11T11:19:27.097Z,96225.16
2023-01-11T11:21:57.361Z,96239.13
2023-01-11T11:24:32.909Z,96239.69
2023-01-11T11:27:08.693Z,96233.09
2023-01-11T11:29:44.428Z,96205.38
2023-01-11T11:32:20.539Z,96228.13
2023-01-11T11:34:50.583Z,96030.38
2023-01-11T11:37:26.923Z,96075.34
2023-01-11T11:39:56.301Z,96225.94
2023-01-11T11:42:24.851Z,96225.44
2023-01-11T11:45:18.094Z,96232.91
2023-01-11T11:48:02.204Z,96233.28
2023-01-11T11:50:48.615Z,96232.31
2023-01-11T11:53:28.732Z,96212.75
2023-01-11T11:55:56.681Z,96233.16
2023-01-11T11:58:26.497Z,96221.00
2023-01-11T12:00:55.975Z,96228.41
2023-01-11T12:03:30.198Z,96224.97
2023-01-11T12:06:00.831Z,96182.56
2023-01-11T12:08:31.817Z,96223.22
2023-01-11T12:11:08.166Z,96216.16
2023-01-11T12:13:39.675Z,96216.16
2023-01-11T12:16:09.744Z,96228.34
2023-01-11T12:18:43.910Z,96228.06
2023-01-11T12:21:20.511Z,96220.66
2023-01-11T12:23:50.630Z,96229.69
2023-01-11T12:26:32.461Z,96223.72
2023-01-11T12:29:19.792Z,96185.53
2023-01-11T12:32:01.206Z,96228.31
2023-01-11T12:34:46.148Z,96224.69
2023-01-11T12:37:24.100Z,96242.66
2023-01-11T12:39:57.548Z,96234.75
2023-01-11T12:42:56.901Z,96226.78
2023-01-11T12:45:37.586Z,96236.88
2023-01-11T12:48:30.375Z,96239.25
2023-01-11T12:51:11.703Z,96242.41
2023-01-11T12:53:49.895Z,96235.28
2023-01-11T12:56:45.759Z,96241.38
2023-01-11T12:59:27.656Z,96242.09
2023-01-11T13:02:03.666Z,96242.03
2023-01-11T13:05:00.011Z,96231.53
2023-01-11T13:07:49.199Z,96289.78
2023-01-11T13:10:43.757Z,96244.00
2023-01-11T13:13:16.757Z,96229.44
2023-01-11T13:15:54.883Z,96244.53
2023-01-11T13:18:29.727Z,96252.47
2023-01-11T13:21:03.281Z,96251.97
2023-01-11T13:23:39.203Z,96148.81
2023-01-11T13:26:23.153Z,96227.06
2023-01-11T13:28:59.117Z,96256.69
2023-01-11T13:31:27.711Z,96248.19
2023-01-11T13:34:02.739Z,96254.34
2023-01-11T13:36:34.571Z,96261.34
2023-01-11T13:39:09.045Z,96260.88
2023-01-11T13:41:42.859Z,96264.44
2023-01-11T13:44:16.816Z,96275.56
2023-01-11T13:46:57.444Z,96274.91
2023-01-11T13:49:46.974Z,96271.50
2023-01-11T13:52:19.639Z,96273.06
2023-01-11T13:54:56.675Z,96285.31
2023-01-11T13:57:31.258Z,96296.69
2023-01-11T14:00:10.618Z,96300.66
2023-01-11T14:02:43.916Z,96305.38
2023-01-11T14:05:19.070Z,96267.00
2023-01-11T14:08:00.996Z,96307.53
2023-01-11T14:10:40.802Z,96312.81
2023-01-11T14:13:40.471Z,96321.31
2023-01-11T14:16:15.412Z,96308.56
2023-01-11T14:18:50.385Z,96331.63
2023-01-11T14:21:22.598Z,96326.06
2023-01-11T14:23:52.012Z,96324.44
2023-01-11T14:26:45.102Z,96304.06
2023-01-11T14:29:42.844Z,96233.09
2023-01-11T14:32:24.059Z,96313.09
2023-01-11T14:35:21.596Z,96340.84
2023-01-11T14:38:29.034Z,96375.25
2023-01-11T14:41:28.408Z,96346.13
2023-01-11T14:44:09.954Z,96363.97
2023-01-11T14:46:55.227Z,96366.44
2023-01-11T14:49:39.544Z,96373.03
2023-01-11T14:52:11.542Z,96374.94
2023-01-11T14:54:42.681Z,96388.16
2023-01-11T14:57:44.108Z,96278.53
2023-01-11T15:00:59.815Z,96381.25
2023-01-11T15:03:49.947Z,96384.75
2023-01-11T15:06:22.848Z,96373.41
2023-01-11T15:08:55.113Z,96377.28
2023-01-11T15:11:29.382Z,96396.84
2023-01-11T15:14:03.180Z,96380.25
2023-01-11T15:16:52.864Z,96393.22
2023-01-11T15:19:33.913Z,96394.25
2023-01-11T15:22:07.237Z,96408.44
2023-01-11T15:24:40.927Z,96425.00
2023-01-11T15:27:23.050Z,96419.59
2023-01-11T15:29:58.252Z,96430.16
2023-01-11T15:32:28.990Z,96426.56
2023-01-11T15:35:29.529Z,96407.03
2023-01-11T15:38:03.794Z,96403.84
2023-01-11T15:40:39.109Z,96439.25
2023-01-11T15:43:24.044Z,96438.75
2023-01-11T15:46:50.686Z,96443.56
2023-01-11T15:49:50.593Z,96462.69
2023-01-11T15:53:03.799Z,96467.50
2023-01-11T15:56:19.014Z,96444.28
2023-01-11T15:59:00.563Z,96414.47
2023-01-11T16:01:42.218Z,96458.13
2023-01-11T16:04:33.020Z,96474.50
2023-01-11T16:07:13.596Z,96472.50
2023-01-11T16:10:18.784Z,96480.47
2023-01-11T16:13:02.019Z,96482.00
2023-01-11T16:15:50.928Z,96458.50
2023-01-11T16:18:22.397Z,96486.09
2023-01-11T16:21:01.587Z,96495.56
2023-01-11T16:23:31.715Z,96457.00
2023-01-11T16:26:01.821Z,96464.03
2023-01-11T16:28:33.253Z,96499.28
2023-01-11T16:31:02.946Z,96499.47
2023-01-11T16:33:34.460Z,96471.13
2023-01-11T16:36:13.465Z,96506.97
2023-01-11T16:38:55.630Z,96493.00
2023-01-11T16:41:26.952Z,96485.56
2023-01-11T16:44:07.612Z,96530.38
2023-01-11T16:47:08.284Z,96521.50
2023-01-11T16:49:40.965Z,96530.69
2023-01-11T16:52:39.067Z,96533.72
2023-01-11T16:55:24.496Z,96534.75
2023-01-11T16:58:01.485Z,96549.91
2023-01-11T17:00:36.088Z,96548.31
2023-01-11T17:03:17.025Z,96505.63
2023-01-11T17:06:06.447Z,96558.34
2023-01-11T17:08:38.781Z,96556.22
2023-01-11T17:11:30.287Z,96552.69
2023-01-11T17:14:46.534Z,96559.53
2023-01-11T17:17:19.707Z,96570.69
2023-01-11T17:19:51.664Z,96578.28
2023-01-11T17:22:23.724Z,96572.97
2023-01-11T17:24:54.250Z,96589.69
2023-01-11T17:27:29.352Z,96593.44
2023-01-11T17:30:01.143Z,96560.22
2023-01-11T17:32:42.392Z,96605.69
2023-01-11T17:35:18.646Z,96567.53
2023-01-11T17:37:48.201Z,96582.69
2023-01-11T17:40:26.290Z,96610.16
2023-01-11T17:43:14.416Z,96644.53
2023-01-11T17:45:43.075Z,96649.78
2023-01-11T17:48:15.850Z,96624.09
2023-01-11T17:50:51.735Z,96674.94
2023-01-11T17:53:24.304Z,96675.44
2023-01-11T17:55:57.391Z,96669.69
2023-01-11T17:58:27.347Z,96680.19
2023-01-11T18:01:27.362Z,96687.19
2023-01-11T18:03:58.049Z,96435.22
2023-01-11T18:06:32.982Z,96673.78
2023-01-11T18:09:02.978Z,96667.66
2023-01-11T18:11:33.592Z,96674.75
2023-01-11T18:14:03.156Z,96668.53
2023-01-11T18:16:35.825Z,96676.88
2023-01-11T18:19:23.817Z,96681.63
2023-01-11T18:21:53.272Z,96675.28
2023-01-11T18:24:56.213Z,96645.06
2023-01-11T18:27:29.238Z,96673.22
2023-01-11T18:30:08.142Z,96676.50
2023-01-11T18:32:41.539Z,96676.22
2023-01-11T18:35:20.201Z,96677.41
2023-01-11T18:37:50.899Z,96681.38
2023-01-11T18:40:22.044Z,96588.84
2023-01-11T18:42:57.104Z,96674.25
2023-01-11T18:45:24.993Z,96682.66
2023-01-11T18:47:53.124Z,96650.22
2023-01-11T18:50:24.173Z,96685.31
2023-01-11T18:52:57.071Z,96673.97
2023-01-11T18:55:30.455Z,96661.13
2023-01-11T18:57:59.113Z,96680.59
2023-01-11T19:00:27.273Z,96628.13
2023-01-11T19:03:01.593Z,96680.53
2023-01-11T19:05:34.914Z,96693.16
2023-01-11T19:10:52.985Z,96697.50
2023-01-11T19:13:24.185Z,96697.78
2023-01-11T19:15:52.019Z,96687.88
2023-01-11T19:18:22.707Z,96705.59
2023-01-11T19:20:51.903Z,96712.25
2023-01-11T19:26:04.395Z,96726.16
2023-01-11T19:28:32.269Z,96721.50
2023-01-11T19:31:00.218Z,96716.41
2023-01-11T19:33:28.221Z,96648.59
2023-01-11T19:36:01.576Z,96731.97
2023-01-11T19:38:32.104Z,96752.56
2023-01-11T19:41:05.297Z,96747.22
2023-01-11T19:43:35.281Z,96742.19
2023-01-11T19:46:04.037Z,96743.06
2023-01-11T19:48:34.431Z,96739.66
2023-01-11T19:51:23.164Z,96729.59
2023-01-11T19:53:52.233Z,96700.81
2023-01-11T19:56:20.745Z,96731.03
2023-01-11T19:58:53.660Z,96726.06
2023-01-11T20:01:21.530Z,96721.81
2023-01-11T20:03:49.479Z,96725.91
2023-01-11T20:06:18.679Z,96727.28
2023-01-11T20:08:51.015Z,96723.75
2023-01-11T20:11:20.909Z,96716.69
2023-01-11T20:13:52.060Z,96733.09
2023-01-11T20:16:22.777Z,96729.50
2023-01-11T20:18:54.041Z,96698.94
2023-01-11T20:21:24.492Z,96733.75
2023-01-11T20:23:55.334Z,96731.69
2023-01-11T20:26:26.002Z,96725.81
2023-01-11T20:28:56.522Z,96717.75
2023-01-11T20:31:28.177Z,96747.00
2023-01-11T20:33:56.516Z,96744.78
2023-01-11T20:36:26.499Z,96743.59
2023-01-11T20:38:54.529Z,96743.94
2023-01-11T20:41:42.207Z,96736.41
2023-01-11T20:44:10.869Z,96748.78
2023-01-11T20:46:42.650Z,96736.28
2023-01-11T20:49:10.758Z,96747.91
2023-01-11T20:51:42.640Z,96749.97
2023-01-11T20:54:13.695Z,96742.84
2023-01-11T20:56:46.588Z,96741.94
2023-01-11T20:59:16.573Z,96738.53
2023-01-11T21:01:47.581Z,96737.09
2023-01-11T21:04:16.066Z,96739.16
2023-01-11T21:06:48.063Z,96710.22
2023-01-11T21:09:18.194Z,96757.56
2023-01-11T21:11:52.577Z,96495.88
2023-01-11T21:14:21.394Z,96750.31
2023-01-11T21:16:49.376Z,96715.38
2023-01-11T21:19:17.397Z,96757.19
2023-01-11T21:21:48.983Z,96755.31
2023-01-11T21:24:17.625Z,96766.13
2023-01-11T21:26:45.917Z,96753.47
2023-01-11T21:29:14.833Z,96752.66
2023-01-11T21:31:45.641Z,96751.81
2023-01-11T21:34:14.633Z,96709.38
2023-01-11T21:36:44.471Z,96760.19
2023-01-11T21:39:18.168Z,96713.59
2023-01-11T21:41:58.342Z,96756.94
2023-01-11T21:44:32.330Z,96750.50
2023-01-11T21:47:00.986Z,96706.09
2023-01-11T21:49:30.514Z,96741.28
2023-01-11T21:51:59.784Z,96751.00
2023-01-11T21:54:31.364Z,96754.84
2023-01-11T21:57:09.868Z,96745.16
2023-01-11T21:59:39.123Z,96689.28
2023-01-11T22:02:07.096Z,96726.66
2023-01-11T22:04:35.268Z,96729.56
2023-01-11T22:07:03.151Z,96723.41
2023-01-11T22:09:33.681Z,96734.81
2023-01-11T22:12:06.030Z,96733.69
2023-01-11T22:14:35.239Z,96713.03
2023-01-11T22:17:04.544Z,96763.81
2023-01-11T22:19:35.073Z,96769.84
2023-01-11T22:22:08.461Z,96767.25
2023-01-11T22:24:39.860Z,96734.13
2023-01-11T22:27:24.746Z,96762.75
2023-01-11T22:29:54.685Z,96771.78
2023-01-11T22:32:22.713Z,96747.50
2023-01-11T22:34:50.453Z,96767.66
2023-01-11T22:37:18.247Z,96761.28
2023-01-11T22:39:47.478Z,96766.69
2023-01-11T22:42:17.625Z,96780.81
2023-01-11T22:44:45.683Z,96776.44
2023-01-11T22:47:19.532Z,96777.06
2023-01-11T22:49:53.730Z,96769.75
2023-01-11T22:52:22.360Z,96775.94
2023-01-11T22:54:55.346Z,96773.28
2023-01-11T22:57:23.517Z,96777.94
2023-01-11T22:59:51.834Z,96763.06
2023-01-11T23:02:24.023Z,96762.97
2023-01-11T23:04:52.371Z,96761.91
2023-01-11T23:07:20.526Z,96768.69
2023-01-11T23:09:49.485Z,96680.47
2023-01-11T23:12:37.791Z,96751.06
2023-01-11T23:15:11.978Z,96740.19
2023-01-11T23:17:39.881Z,96760.72
2023-01-11T23:20:08.386Z,96760.00
2023-01-11T23:22:41.674Z,96761.28
2023-01-11T23:25:10.631Z,96755.22
2023-01-11T23:27:39.952Z,96755.50
2023-01-11T23:30:10.274Z,96754.59
2023-01-11T23:32:38.212Z,96752.88
2023-01-11T23:35:09.053Z,96737.50
2023-01-11T23:37:37.191Z,96754.44
2023-01-11T23:40:06.289Z,96733.25
2023-01-11T23:42:34.053Z,96749.59
2023-01-11T23:45:05.993Z,96738.97
2023-01-11T23:47:35.495Z,96743.94
2023-01-11T23:50:09.074Z,96755.06
2023-01-11T23:52:37.238Z,96753.13
2023-01-11T23:55:10.577Z,96755.03
2023-01-11T23:57:58.288Z,96752.09
